Time;durP1;ratioP1;P1;durP2;ratioP2;P2;SDS_P1;SDS_P2;PMS_P1;PMS_P2;Temp;Humidity;BMP_temperature;BMP_pressure;BME280_temperature;BME280_humidity;BME280_pressure;Samples;Min_cycle;Max_cycle;Signal;HPM_P1;HPM_P2
2022/01/18 00:01:52;;;;;;;14.00;3.90;;;;;;;-1.08;70.57;99488.45;106098;1274;111299;-71
2022/01/18 00:04:22;;;;;;;19.50;4.50;;;;;;;-1.10;70.33;99483.79;106119;1274;97956;-71
2022/01/18 00:06:52;;;;;;;18.90;4.90;;;;;;;-1.13;70.34;99484.90;106047;1274;107628;-74
2022/01/18 00:09:25;;;;;;;15.10;4.80;;;;;;;-1.16;70.31;99491.53;106072;1274;96547;-72
2022/01/18 00:12:14;;;;;;;18.20;4.30;;;;;;;-1.17;70.38;99496.62;106095;1274;96411;-72
2022/01/18 00:14:54;;;;;;;15.90;4.80;;;;;;;-1.19;70.29;99502.91;106113;1274;111441;-73
2022/01/18 00:17:40;;;;;;;18.60;4.70;;;;;;;-1.20;70.28;99505.71;106117;1274;97957;-73
2022/01/18 00:20:16;;;;;;;18.70;4.50;;;;;;;-1.22;70.48;99499.99;106108;1274;107743;-72
2022/01/18 00:22:44;;;;;;;18.60;4.90;;;;;;;-1.23;70.30;99503.49;106084;1274;97856;-71
2022/01/18 00:25:17;;;;;;;18.60;5.40;;;;;;;-1.25;70.61;99504.77;106099;1274;95285;-72
2022/01/18 00:27:46;;;;;;;15.00;4.10;;;;;;;-1.26;70.35;99510.18;106083;1274;111167;-72
2022/01/18 00:30:43;;;;;;;14.10;4.10;;;;;;;-1.29;70.54;99505.52;106154;1274;97975;-72
2022/01/18 00:35:39;;;;;;;20.10;4.60;;;;;;;-1.31;70.22;99513.23;106093;1274;97948;-72
2022/01/18 00:38:56;;;;;;;18.00;3.90;;;;;;;-1.35;70.13;99509.97;106088;1274;97861;-72
2022/01/18 00:41:04;;;;;;;17.40;4.60;;;;;;;-1.37;70.04;99513.48;106053;1274;111459;-70
2022/01/18 00:43:32;;;;;;;17.80;4.50;;;;;;;-1.38;70.12;99519.93;106098;1274;95196;-73
2022/01/18 00:45:59;;;;;;;16.90;4.00;;;;;;;-1.38;70.27;99522.73;106104;1274;107816;-72
2022/01/18 00:48:32;;;;;;;16.20;4.10;;;;;;;-1.39;70.12;99523.61;106147;1274;97866;-71
2022/01/18 00:51:03;;;;;;;14.50;4.40;;;;;;;-1.39;70.25;99521.69;106119;1274;95272;-75
2022/01/18 00:53:34;;;;;;;15.50;3.60;;;;;;;-1.38;70.15;99526.20;106119;1274;111013;-72
2022/01/18 00:58:47;;;;;;;16.90;3.70;;;;;;;-1.36;69.56;99530.17;106151;1274;107732;-70
2022/01/18 01:01:18;;;;;;;16.30;3.90;;;;;;;-1.37;69.72;99543.93;106221;1274;97979;-71
2022/01/18 01:03:47;;;;;;;18.70;4.70;;;;;;;-1.36;69.81;99556.79;106170;1274;97877;-71
2022/01/18 01:06:16;;;;;;;15.50;4.70;;;;;;;-1.36;69.68;99561.32;106165;1274;111464;-70
2022/01/18 01:08:44;;;;;;;15.80;4.00;;;;;;;-1.37;70.14;99559.59;106100;1274;95940;-71
2022/01/18 01:11:12;;;;;;;19.30;4.10;;;;;;;-1.36;69.98;99563.56;106071;1274;106739;-70
2022/01/18 01:13:46;;;;;;;21.60;4.70;;;;;;;-1.36;69.84;99563.75;106100;1274;97950;-71
2022/01/18 01:44:04;;;;;;;17.90;4.20;;;;;;;-1.44;69.57;99588.23;106076;1274;97965;-72
2022/01/18 01:46:09;;;;;;;19.60;6.10;;;;;;;-1.45;69.42;99592.26;106074;1274;111496;-71
2022/01/18 01:48:37;;;;;;;16.50;4.30;;;;;;;-1.45;69.57;99593.30;106098;1274;95654;-71
2022/01/18 01:51:08;;;;;;;13.90;4.20;;;;;;;-1.45;69.45;99594.02;106101;1274;106000;-71
2022/01/18 01:53:36;;;;;;;15.50;3.70;;;;;;;-1.46;69.81;99595.05;106109;1274;97914;-71
2022/01/18 01:56:06;;;;;;;20.50;4.30;;;;;;;-1.46;69.57;99609.65;106177;1274;97879;-69
2022/01/18 01:58:35;;;;;;;18.50;4.10;;;;;;;-1.45;69.49;99621.32;106127;1274;111510;-70
2022/01/18 02:01:07;;;;;;;10.60;3.60;;;;;;;-1.44;69.67;99618.34;106079;1274;97946;-70
2022/01/18 02:03:35;;;;;;;16.90;4.40;;;;;;;-1.43;69.75;99626.84;106065;1274;107798;-71
2022/01/18 02:06:04;;;;;;;15.10;4.30;;;;;;;-1.41;69.71;99624.36;106074;1274;97965;-71
2022/01/18 02:08:32;;;;;;;15.70;3.90;;;;;;;-1.41;69.58;99628.90;106079;1273;96556;-71
2022/01/18 02:11:00;;;;;;;12.20;3.70;;;;;;;-1.38;69.47;99623.98;106059;1274;111424;-71
2022/01/18 02:13:27;;;;;;;15.00;3.80;;;;;;;-1.37;69.35;99635.80;107455;1273;97614;-72
2022/01/18 02:24:11;;;;;;;14.80;4.00;;;;;;;-1.32;69.57;99635.91;106134;1273;111434;-70
2022/01/18 02:26:38;;;;;;;17.40;4.70;;;;;;;-1.32;69.62;99641.29;106023;1273;95257;-71
2022/01/18 02:29:08;;;;;;;13.60;4.30;;;;;;;-1.31;69.29;99645.46;105998;1274;107694;-71
2022/01/18 02:31:37;;;;;;;15.30;4.40;;;;;;;-1.31;69.38;99640.25;106093;1272;97862;-71
2022/01/18 02:34:09;;;;;;;14.80;4.40;;;;;;;-1.31;69.34;99644.60;106127;1274;98017;-70
2022/01/18 02:36:39;;;;;;;15.30;4.00;;;;;;;-1.33;69.32;99653.67;106118;1274;111427;-70
2022/01/18 02:39:09;;;;;;;18.40;4.70;;;;;;;-1.33;69.33;99653.67;106126;1274;98072;-70
2022/01/18 02:41:39;;;;;;;20.70;4.20;;;;;;;-1.36;69.40;99650.91;106023;1274;107779;-71
2022/01/18 02:44:13;;;;;;;15.00;4.10;;;;;;;-1.37;69.23;99651.27;106143;1274;97979;-69
2022/01/18 02:46:44;;;;;;;16.70;4.20;;;;;;;-1.38;69.31;99652.86;106152;1274;98364;-72
2022/01/18 02:49:16;;;;;;;13.90;4.70;;;;;;;-1.39;69.37;99658.80;106119;1274;111472;-71
2022/01/18 02:51:46;;;;;;;19.20;4.70;;;;;;;-1.39;69.31;99661.92;106201;1274;95248;-71
2022/01/18 02:54:17;;;;;;;15.00;4.80;;;;;;;-1.37;69.61;99663.81;106211;1273;108137;-70
2022/01/18 02:56:54;;;;;;;16.30;4.10;;;;;;;-1.36;69.44;99675.97;106055;1274;98001;-71
2022/01/18 02:59:38;;;;;;;19.80;5.10;;;;;;;-1.32;69.49;99678.71;106116;1273;97972;-70
2022/01/18 03:05:14;;;;;;;20.50;5.00;;;;;;;-1.27;69.64;99680.73;106131;1274;98116;-71
2022/01/18 03:07:44;;;;;;;19.20;4.50;;;;;;;-1.26;69.43;99677.41;106136;1274;105622;-71
2022/01/18 03:10:16;;;;;;;21.90;5.10;;;;;;;-1.25;69.27;99682.61;106217;1274;97874;-71
2022/01/18 03:12:44;;;;;;;21.50;5.80;;;;;;;-1.23;69.41;99685.70;106236;1274;97945;-71
2022/01/18 03:15:12;;;;;;;17.60;4.60;;;;;;;-1.22;69.32;99684.64;106139;1274;111404;-72
2022/01/18 03:17:40;;;;;;;26.00;6.50;;;;;;;-1.19;69.30;99682.16;106131;1274;97995;-70
2022/01/18 03:20:12;;;;;;;19.20;4.90;;;;;;;-1.18;69.36;99685.30;106134;1274;107749;-71
2022/01/18 03:22:40;;;;;;;22.20;6.10;;;;;;;-1.17;69.36;99685.80;106120;1274;95481;-71
2022/01/18 03:28:04;;;;;;;26.30;8.00;;;;;;;-1.17;69.60;99686.84;106137;1274;111326;-72
2022/01/18 03:30:42;;;;;;;32.20;8.40;;;;;;;-1.18;69.47;99687.20;106108;1274;141918;-65
2022/01/18 03:33:17;;;;;;;26.70;7.30;;;;;;;-1.18;69.37;99692.08;106178;1274;107720;-71
2022/01/18 03:35:48;;;;;;;32.00;8.10;;;;;;;-1.20;69.67;99695.76;106177;1274;98419;-71
2022/01/18 03:38:19;;;;;;;30.90;8.80;;;;;;;-1.22;69.26;99695.61;106282;1273;97867;-70
2022/01/18 03:40:48;;;;;;;30.10;8.10;;;;;;;-1.24;69.53;99697.90;106216;1274;109338;-70
2022/01/18 03:43:17;;;;;;;25.80;7.50;;;;;;;-1.24;69.48;99699.13;106121;1273;97872;-70
2022/01/18 03:45:47;;;;;;;30.40;8.30;;;;;;;-1.24;69.56;99695.67;106097;1274;107869;-69
2022/01/18 03:48:28;;;;;;;28.30;8.70;;;;;;;-1.26;69.65;99697.08;106110;1274;97934;-70
2022/01/18 03:50:59;;;;;;;32.40;9.40;;;;;;;-1.26;69.83;99700.57;106175;1274;95186;-71
2022/01/18 03:53:27;;;;;;;30.50;8.40;;;;;;;-1.29;69.68;99697.29;106133;1274;109306;-71
2022/01/18 03:55:57;;;;;;;26.90;7.70;;;;;;;-1.32;69.71;99703.08;106165;1274;97922;-71
2022/01/18 03:58:25;;;;;;;32.50;8.90;;;;;;;-1.33;69.53;99710.92;106161;1274;107778;-70
2022/01/18 04:00:54;;;;;;;24.50;8.20;;;;;;;-1.33;69.76;99711.80;106161;1274;97954;-71
2022/01/18 04:03:22;;;;;;;28.60;7.80;;;;;;;-1.35;69.78;99725.20;106080;1274;97846;-72
2022/01/18 04:05:52;;;;;;;26.50;7.30;;;;;;;-1.34;69.80;99731.11;106180;1274;111313;-71
2022/01/18 04:08:23;;;;;;;27.90;8.50;;;;;;;-1.33;69.83;99737.02;106213;1274;98444;-71
2022/01/18 04:10:53;;;;;;;31.80;8.40;;;;;;;-1.33;69.79;99738.92;106141;1274;107733;-71
2022/01/18 04:13:22;;;;;;;25.50;7.80;;;;;;;-1.33;69.78;99737.52;106169;1274;97117;-74
2022/01/18 04:15:51;;;;;;;34.40;8.70;;;;;;;-1.32;69.74;99740.83;106157;1274;97955;-72
2022/01/18 04:18:35;;;;;;;27.90;8.10;;;;;;;-1.31;69.53;99741.52;106166;1274;111159;-72
2022/01/18 04:29:11;;;;;;;27.80;8.30;;;;;;;-1.31;69.90;99748.98;106117;1274;97855;-70
2022/01/18 04:31:40;;;;;;;27.00;9.10;;;;;;;-1.31;70.05;99742.04;106100;1274;111319;-71
2022/01/18 04:34:08;;;;;;;32.70;9.60;;;;;;;-1.32;69.86;99749.88;106127;1274;97904;-69
2022/01/18 04:36:37;;;;;;;34.20;10.00;;;;;;;-1.31;70.06;99754.75;106136;1274;108319;-71
2022/01/18 04:39:05;;;;;;;32.20;8.80;;;;;;;-1.32;69.73;99754.92;106210;1273;97885;-73
2022/01/18 04:41:35;;;;;;;35.50;10.00;;;;;;;-1.32;70.01;99755.97;106161;1274;99585;-71
2022/01/18 04:48:23;;;;;;;32.10;9.40;;;;;;;-1.33;69.99;99758.59;106124;1274;112075;-70
2022/01/18 04:49:47;;;;;;;28.10;8.10;;;;;;;-1.35;70.04;99764.70;106052;1274;107759;-71
2022/01/18 04:52:19;;;;;;;27.50;9.30;;;;;;;-1.35;70.07;99765.56;106113;1274;97873;-71
2022/01/18 04:54:57;;;;;;;32.30;9.60;;;;;;;-1.34;69.90;99766.95;106142;1274;97863;-70
2022/01/18 05:00:15;;;;;;;28.40;9.70;;;;;;;-1.35;69.96;99764.52;106170;1274;97738;-69
2022/01/18 05:02:47;;;;;;;28.10;9.20;;;;;;;-1.37;69.90;99765.42;106169;1274;107833;-71
2022/01/18 05:05:33;;;;;;;26.30;8.50;;;;;;;-1.37;70.34;99769.95;106103;1274;97924;-71
2022/01/18 05:08:05;;;;;;;29.60;8.70;;;;;;;-1.38;70.09;99768.39;106115;1274;97111;-71
2022/01/18 05:10:34;;;;;;;31.60;9.60;;;;;;;-1.36;70.14;99771.33;106116;1274;111396;-72
2022/01/18 05:13:12;;;;;;;30.70;10.10;;;;;;;-1.34;70.23;99770.09;106183;1273;98558;-70
2022/01/18 05:15:48;;;;;;;27.10;9.30;;;;;;;-1.34;70.27;99770.79;106123;1274;106156;-71
2022/01/18 05:21:15;;;;;;;25.00;8.20;;;;;;;-1.36;70.14;99779.69;106166;1271;97929;-72
2022/01/18 05:23:45;;;;;;;29.70;8.90;;;;;;;-1.38;70.22;99769.95;106179;1273;112591;-72
2022/01/18 05:26:15;;;;;;;30.40;9.70;;;;;;;-1.41;70.39;99784.60;106188;1273;97888;-72
2022/01/18 05:28:45;;;;;;;32.40;10.40;;;;;;;-1.43;70.53;99783.24;106202;1274;107676;-73
2022/01/18 05:31:14;;;;;;;29.40;8.60;;;;;;;-1.43;70.48;99780.30;106076;1274;97969;-73
2022/01/18 05:33:42;;;;;;;24.50;8.00;;;;;;;-1.44;70.56;99784.66;106125;1274;97739;-73
2022/01/18 05:36:11;;;;;;;38.20;10.80;;;;;;;-1.44;70.39;99780.30;106047;1274;111383;-71
2022/01/18 05:38:41;;;;;;;27.20;9.20;;;;;;;-1.44;70.23;99779.10;106110;1274;97800;-73
2022/01/18 05:41:12;;;;;;;25.50;9.00;;;;;;;-1.43;70.21;99786.90;106154;1272;108666;-71
2022/01/18 05:43:40;;;;;;;28.30;8.80;;;;;;;-1.42;70.34;99788.45;106155;1274;97779;-70
2022/01/18 05:46:08;;;;;;;22.30;8.40;;;;;;;-1.43;70.63;99786.56;106145;1272;96262;-71
2022/01/18 05:48:38;;;;;;;28.80;9.20;;;;;;;-1.44;70.60;99782.39;106135;1274;110982;-71
2022/01/18 05:51:06;;;;;;;26.60;8.70;;;;;;;-1.43;70.38;99789.52;106158;1274;97688;-71
2022/01/18 05:53:35;;;;;;;27.80;8.50;;;;;;;-1.43;70.64;99790.56;106180;1274;107598;-71
2022/01/18 05:56:11;;;;;;;27.70;9.00;;;;;;;-1.44;70.29;99795.96;106099;1274;97867;-70
2022/01/18 05:58:44;;;;;;;24.90;8.10;;;;;;;-1.44;70.52;99795.95;106192;1274;98898;-72
2022/01/18 06:01:14;;;;;;;29.70;9.50;;;;;;;-1.44;70.50;99797.88;106084;1274;111294;-72
2022/01/18 06:09:07;;;;;;;24.40;8.00;;;;;;;-1.42;70.51;99806.02;106166;1274;98556;-73
2022/01/18 06:11:36;;;;;;;26.40;9.20;;;;;;;-1.43;70.69;99813.87;106142;1273;95299;-71
2022/01/18 06:14:04;;;;;;;30.20;8.50;;;;;;;-1.43;70.58;99808.83;106192;1274;111369;-71
2022/01/18 06:16:32;;;;;;;25.00;8.30;;;;;;;-1.42;70.65;99816.46;106186;1274;97941;-72
2022/01/18 06:18:59;;;;;;;31.80;9.70;;;;;;;-1.43;70.58;99827.27;106135;1274;105509;-72
2022/01/18 06:21:28;;;;;;;30.60;9.40;;;;;;;-1.43;70.53;99831.09;106148;1274;98001;-72
2022/01/18 06:23:55;;;;;;;25.80;7.60;;;;;;;-1.42;70.62;99836.64;106153;1274;95292;-72
2022/01/18 06:26:24;;;;;;;26.70;8.30;;;;;;;-1.41;70.69;99833.85;106165;1274;111412;-71
2022/01/18 06:28:53;;;;;;;22.80;7.40;;;;;;;-1.42;70.49;99830.20;106218;1274;95655;-71
2022/01/18 06:31:23;;;;;;;27.40;8.20;;;;;;;-1.43;70.91;99829.36;106139;1274;107701;-70
2022/01/18 06:33:51;;;;;;;24.90;8.40;;;;;;;-1.43;70.80;99833.19;106124;1274;95994;-70
2022/01/18 06:36:24;;;;;;;26.00;7.80;;;;;;;-1.41;70.72;99828.98;106185;1274;97867;-71
2022/01/18 06:38:52;;;;;;;25.80;8.70;;;;;;;-1.39;70.50;99842.35;106257;1274;111360;-72
2022/01/18 06:41:20;;;;;;;30.20;9.20;;;;;;;-1.37;70.65;99839.70;106215;1273;97969;-70
2022/01/18 06:43:47;;;;;;;25.20;9.30;;;;;;;-1.37;70.86;99841.27;106122;1274;107402;-70
2022/01/18 06:46:15;;;;;;;30.20;10.20;;;;;;;-1.37;70.78;99847.90;106109;1274;97952;-71
2022/01/18 06:48:44;;;;;;;30.40;9.30;;;;;;;-1.36;70.75;99856.06;106132;1274;97831;-71
2022/01/18 06:51:15;;;;;;;23.70;8.50;;;;;;;-1.34;70.59;99865.27;106133;1274;111476;-70
2022/01/18 06:53:46;;;;;;;25.30;7.50;;;;;;;-1.32;70.72;99874.12;106190;1274;97882;-71
2022/01/18 06:56:20;;;;;;;27.00;9.60;;;;;;;-1.30;70.52;99872.55;106200;1274;107674;-70
2022/01/18 06:58:48;;;;;;;27.70;8.30;;;;;;;-1.29;70.45;99860.52;106136;1273;99006;-70
2022/01/18 07:01:18;;;;;;;27.70;9.60;;;;;;;-1.29;70.87;99864.00;106183;1274;97873;-71
2022/01/18 07:03:48;;;;;;;30.20;10.90;;;;;;;-1.30;70.95;99874.45;106146;1274;112115;-71
2022/01/18 07:06:19;;;;;;;30.40;9.80;;;;;;;-1.29;70.72;99892.19;106185;1274;97969;-71
2022/01/18 07:08:50;;;;;;;24.20;9.40;;;;;;;-1.29;70.71;99910.11;106190;1274;107775;-71
2022/01/18 07:11:17;;;;;;;27.60;9.40;;;;;;;-1.25;70.69;99911.46;106094;1274;95353;-72
2022/01/18 07:13:45;;;;;;;24.60;8.70;;;;;;;-1.22;70.64;99910.02;106129;1274;97956;-70
2022/01/18 07:16:13;;;;;;;27.20;9.40;;;;;;;-1.19;70.92;99915.57;106056;1274;111598;-71
2022/01/18 07:18:41;;;;;;;26.60;8.90;;;;;;;-1.18;70.76;99913.82;106149;1274;97950;-70
2022/01/18 07:21:09;;;;;;;23.30;8.50;;;;;;;-1.13;70.79;99910.45;106108;1273;110048;-71
2022/01/18 07:23:39;;;;;;;24.00;7.80;;;;;;;-1.11;70.98;99918.79;106303;1274;97981;-71
2022/01/18 07:26:10;;;;;;;25.50;7.50;;;;;;;-1.10;70.67;99913.91;106072;1274;95909;-67
2022/01/18 07:28:38;;;;;;;25.30;8.40;;;;;;;-1.08;70.62;99916.85;106100;1274;111346;-74
2022/01/18 07:31:05;;;;;;;23.00;7.70;;;;;;;-1.05;70.87;99921.86;106050;1274;97760;-71
2022/01/18 07:33:36;;;;;;;27.20;8.20;;;;;;;-1.01;70.90;99930.52;106165;1274;107692;-72
2022/01/18 07:36:07;;;;;;;21.30;7.40;;;;;;;-0.98;70.76;99933.27;106082;1274;97956;-71
2022/01/18 07:38:35;;;;;;;20.20;7.30;;;;;;;-0.96;70.73;99932.54;106190;1272;95185;-72
2022/01/18 07:41:03;;;;;;;24.10;9.50;;;;;;;-0.94;70.93;99933.91;106168;1274;111322;-72
2022/01/18 07:43:30;;;;;;;33.80;9.80;;;;;;;-0.91;70.84;99931.62;106066;1274;98090;-71
2022/01/18 07:45:58;;;;;;;22.00;7.30;;;;;;;-0.85;70.88;99930.34;106032;1274;107845;-72
2022/01/18 07:48:26;;;;;;;23.80;8.40;;;;;;;-0.78;70.80;99937.73;106076;1274;96238;-73
2022/01/18 07:50:54;;;;;;;23.60;8.60;;;;;;;-0.77;70.97;99939.29;106177;1273;97854;-71
2022/01/18 07:53:22;;;;;;;25.80;8.20;;;;;;;-0.77;70.94;99946.42;106195;1273;111408;-72
2022/01/18 07:55:52;;;;;;;32.70;9.40;;;;;;;-0.77;71.00;99950.44;106141;1273;97864;-71
2022/01/18 07:58:24;;;;;;;29.70;8.10;;;;;;;-0.81;70.95;99953.09;105998;1273;108875;-71
2022/01/18 08:00:52;;;;;;;23.90;7.60;;;;;;;-0.84;70.99;99958.02;106023;1274;96252;-69
2022/01/18 08:03:21;;;;;;;23.10;8.50;;;;;;;-0.83;70.76;99965.15;106091;1274;96976;-72
2022/01/18 08:05:52;;;;;;;27.10;8.70;;;;;;;-0.81;71.05;99973.12;106086;1274;111408;-72
2022/01/18 08:08:22;;;;;;;24.30;8.30;;;;;;;-0.80;70.85;99984.95;106085;1274;97879;-72
2022/01/18 08:10:51;;;;;;;22.10;8.20;;;;;;;-0.82;70.87;99979.77;106228;1274;107812;-73
2022/01/18 08:13:23;;;;;;;23.00;8.10;;;;;;;-0.80;71.03;99981.30;106186;1274;97924;-72
2022/01/18 08:16:09;;;;;;;26.00;8.50;;;;;;;-0.77;71.04;99982.14;106223;1274;97895;-73
2022/01/18 08:18:38;;;;;;;27.80;8.90;;;;;;;-0.76;70.95;99974.48;106220;1274;112198;-71
2022/01/18 08:21:06;;;;;;;24.60;9.10;;;;;;;-0.78;70.80;99970.98;106096;1274;95933;-72
2022/01/18 08:23:34;;;;;;;25.60;10.30;;;;;;;-0.79;70.82;99976.05;106067;1274;107831;-73
2022/01/18 08:26:02;;;;;;;26.10;9.20;;;;;;;-0.80;71.07;99987.20;106055;1274;97940;-71
2022/01/18 08:28:30;;;;;;;25.70;9.20;;;;;;;-0.80;71.20;99988.27;106134;1272;97997;-72
2022/01/18 08:30:58;;;;;;;24.90;8.20;;;;;;;-0.81;71.01;99988.09;106182;1272;109168;-71
2022/01/18 08:33:26;;;;;;;24.10;9.00;;;;;;;-0.80;71.00;99988.42;106242;1274;95779;-72
2022/01/18 08:35:54;;;;;;;26.40;8.50;;;;;;;-0.79;71.07;99979.38;106249;1273;107792;-71
2022/01/18 08:38:22;;;;;;;28.10;9.00;;;;;;;-0.81;71.11;99980.09;106132;1274;97915;-72
2022/01/18 08:40:54;;;;;;;28.00;8.70;;;;;;;-0.84;71.14;99987.98;106135;1274;95277;-71
2022/01/18 08:43:26;;;;;;;26.90;8.80;;;;;;;-0.83;71.27;99992.84;106081;1274;111517;-72
2022/01/18 08:45:53;;;;;;;27.70;9.90;;;;;;;-0.82;70.98;99996.66;106095;1274;95213;-72
2022/01/18 08:48:21;;;;;;;25.40;8.90;;;;;;;-0.83;71.05;99998.06;106051;1274;108735;-72
2022/01/18 08:50:52;;;;;;;27.60;8.70;;;;;;;-0.82;71.13;100007.80;106122;1274;97945;-73
2022/01/18 08:53:21;;;;;;;28.30;10.40;;;;;;;-0.83;71.27;100002.77;106117;1274;97970;-73
2022/01/18 08:55:49;;;;;;;25.90;10.40;;;;;;;-0.83;71.02;100006.07;106144;1274;111463;-72
2022/01/18 08:58:17;;;;;;;24.00;10.00;;;;;;;-0.81;71.29;100018.06;106095;1274;97898;-73
2022/01/18 09:00:46;;;;;;;26.40;9.20;;;;;;;-0.82;71.29;100020.50;106103;1274;107433;-71
2022/01/18 09:03:16;;;;;;;27.80;9.70;;;;;;;-0.81;71.30;100021.19;106166;1274;98853;-72
2022/01/18 09:05:47;;;;;;;24.90;9.70;;;;;;;-0.80;71.36;100034.24;105900;1272;97979;-72
2022/01/18 09:08:15;;;;;;;28.90;9.90;;;;;;;-0.81;71.15;100041.73;106297;1274;111327;-73
2022/01/18 09:10:47;;;;;;;26.70;8.90;;;;;;;-0.80;71.11;100043.64;106225;1274;95177;-73
2022/01/18 09:13:17;;;;;;;25.00;9.20;;;;;;;-0.79;71.14;100046.77;106182;1272;107622;-72
2022/01/18 09:15:45;;;;;;;23.50;9.50;;;;;;;-0.78;71.07;100046.77;106178;1274;97957;-70
2022/01/18 09:18:13;;;;;;;31.40;11.80;;;;;;;-0.77;71.31;100046.23;106159;1274;97886;-72
2022/01/18 09:20:43;;;;;;;27.70;9.80;;;;;;;-0.75;71.24;100050.21;106034;1274;112663;-71
2022/01/18 09:23:15;;;;;;;26.00;9.20;;;;;;;-0.76;71.17;100049.36;106127;1272;97902;-73
2022/01/18 09:25:43;;;;;;;24.80;9.10;;;;;;;-0.73;71.20;100052.81;106018;1274;107717;-73
2022/01/18 09:28:16;;;;;;;31.10;10.80;;;;;;;-0.70;71.27;100055.74;106037;1273;97917;-72
2022/01/18 09:30:44;;;;;;;28.00;10.90;;;;;;;-0.69;71.20;100057.30;106081;1274;97860;-71
2022/01/18 09:33:12;;;;;;;28.90;9.80;;;;;;;-0.66;71.22;100059.53;106071;1274;111327;-72
2022/01/18 09:35:40;;;;;;;25.40;9.60;;;;;;;-0.66;71.33;100062.66;106150;1274;98296;-72
2022/01/18 09:38:12;;;;;;;24.70;8.30;;;;;;;-0.65;71.34;100068.41;106097;1274;107672;-74
2022/01/18 09:40:43;;;;;;;23.20;9.80;;;;;;;-0.62;71.34;100074.64;106177;1274;97928;-72
2022/01/18 09:43:14;;;;;;;27.60;10.20;;;;;;;-0.56;71.33;100082.23;106106;1272;97896;-73
2022/01/18 09:45:46;;;;;;;28.40;10.50;;;;;;;-0.53;71.16;100081.17;106045;1274;111296;-72
2022/01/18 09:48:16;;;;;;;28.10;10.00;;;;;;;-0.48;71.37;100079.38;106074;1273;97873;-72
2022/01/18 09:50:48;;;;;;;26.20;8.60;;;;;;;-0.47;71.26;100079.53;106141;1274;108430;-71
2022/01/18 09:53:17;;;;;;;25.30;9.10;;;;;;;-0.46;71.42;100086.85;106007;1274;97979;-72
2022/01/18 09:55:45;;;;;;;25.90;9.80;;;;;;;-0.47;71.46;100087.73;106144;1274;97860;-72
2022/01/18 09:58:13;;;;;;;26.20;9.80;;;;;;;-0.45;71.45;100087.71;106070;1274;111375;-73
2022/01/18 10:00:44;;;;;;;26.40;8.70;;;;;;;-0.43;71.39;100087.35;106228;1274;97858;-72
2022/01/18 10:03:35;;;;;;;25.70;9.50;;;;;;;-0.41;71.45;100086.09;106138;1273;107695;-71
2022/01/18 10:06:08;;;;;;;26.00;8.30;;;;;;;-0.39;71.49;100079.44;106177;1274;98429;-72
2022/01/18 10:08:40;;;;;;;29.00;9.60;;;;;;;-0.36;71.41;100078.38;106194;1274;97846;-73
2022/01/18 10:11:17;;;;;;;22.70;8.30;;;;;;;-0.33;71.34;100074.66;106173;1274;111983;-69
2022/01/18 10:13:51;;;;;;;25.60;11.00;;;;;;;-0.30;71.46;100076.21;106128;1274;97975;-72
2022/01/18 10:16:23;;;;;;;19.50;7.10;;;;;;;-0.27;71.42;100077.05;106249;1274;107791;-72
2022/01/18 10:19:03;;;;;;;26.60;10.20;;;;;;;-0.24;71.40;100082.25;106165;1274;98994;-74
2022/01/18 10:21:41;;;;;;;25.80;9.10;;;;;;;-0.21;71.37;100077.15;106127;1274;97943;-73
2022/01/18 10:24:16;;;;;;;28.00;9.20;;;;;;;-0.21;71.45;100079.94;106185;1274;111346;-73
2022/01/18 10:26:48;;;;;;;28.50;10.20;;;;;;;-0.18;71.56;100080.77;106188;1272;97868;-71
2022/01/18 10:29:20;;;;;;;21.90;8.80;;;;;;;-0.17;71.49;100090.16;106005;1274;110044;-71
2022/01/18 10:37:15;;;;;;;29.80;9.40;;;;;;;-0.19;71.55;100104.13;107981;1273;112066;-72
2022/01/18 10:39:57;;;;;;;26.60;9.60;;;;;;;-0.19;71.51;100111.64;106165;1274;98023;-72
2022/01/18 10:42:41;;;;;;;28.40;10.20;;;;;;;-0.19;71.58;100110.93;106113;1274;107743;-73
2022/01/18 10:45:14;;;;;;;25.10;9.10;;;;;;;-0.18;71.48;100105.17;106161;1274;97851;-73
2022/01/18 10:47:56;;;;;;;23.80;8.70;;;;;;;-0.14;71.48;100105.13;106111;1274;95242;-74
2022/01/18 10:50:34;;;;;;;31.60;10.80;;;;;;;-0.11;71.53;100100.21;106123;1274;111189;-73
2022/01/18 10:53:18;;;;;;;27.40;8.90;;;;;;;-0.11;71.42;100100.21;106163;1274;95306;-75
2022/01/18 10:55:50;;;;;;;;;;;;;;;-0.10;71.54;100112.92;106106;1274;107733;-73
2022/01/18 10:58:23;;;;;;;28.20;8.30;;;;;;;-0.12;71.48;100115.02;106110;1273;97999;-74
2022/01/18 11:00:51;;;;;;;25.10;9.10;;;;;;;-0.07;71.50;100125.27;106091;1274;97851;-74
2022/01/18 11:03:19;;;;;;;23.50;8.50;;;;;;;-0.04;71.52;100130.48;106224;1274;111521;-77
2022/01/18 11:05:46;;;;;;;29.50;9.40;;;;;;;-0.01;71.44;100130.63;106137;1274;95212;-74
2022/01/18 11:08:18;;;;;;;26.00;9.10;;;;;;;0.03;71.48;100124.11;106136;1274;108094;-77
2022/01/18 11:10:50;;;;;;;26.30;8.60;;;;;;;0.05;71.48;100117.63;106165;1274;98266;-75
2022/01/18 11:13:36;;;;;;;26.20;8.50;;;;;;;0.05;71.50;100113.25;106211;1274;97899;-74
2022/01/18 11:16:13;;;;;;;30.10;10.90;;;;;;;0.07;71.46;100114.99;106069;1274;111011;-74
2022/01/18 11:18:46;;;;;;;30.30;10.60;;;;;;;0.10;71.46;100119.67;106095;1274;96582;-74
2022/01/18 11:21:19;;;;;;;27.60;9.90;;;;;;;0.11;71.56;100122.08;106152;1272;107687;-72
2022/01/18 11:23:49;;;;;;;28.50;10.10;;;;;;;0.12;71.54;100122.08;106043;1274;98022;-73
2022/01/18 11:26:19;;;;;;;25.10;9.90;;;;;;;0.16;71.56;100122.38;106126;1274;97884;-73
2022/01/18 11:28:55;;;;;;;27.00;10.10;;;;;;;0.16;71.49;100129.19;106031;1274;111388;-68
2022/01/18 11:31:24;;;;;;;29.00;10.20;;;;;;;0.16;71.47;100127.45;106051;1273;97891;-69
2022/01/18 11:33:58;;;;;;;30.00;10.40;;;;;;;0.17;71.54;100128.48;106100;1272;109122;-70
2022/01/18 11:36:43;;;;;;;24.20;10.50;;;;;;;0.16;71.48;100133.20;106147;1274;97946;-70
2022/01/18 11:39:12;;;;;;;27.80;10.50;;;;;;;0.13;71.53;100140.37;106248;1274;97961;-72
2022/01/18 11:41:40;;;;;;;25.70;10.20;;;;;;;0.12;71.45;100139.16;106169;1274;112406;-70
2022/01/18 11:44:17;;;;;;;29.80;12.40;;;;;;;0.11;71.59;100145.81;106082;1274;97953;-73
2022/01/18 11:46:52;;;;;;;27.90;11.30;;;;;;;0.11;71.55;100144.60;105869;1274;107701;-73
2022/01/18 11:49:27;;;;;;;26.30;9.30;;;;;;;0.10;71.43;100139.02;106094;1274;97880;-71
2022/01/18 11:52:05;;;;;;;21.70;8.70;;;;;;;0.08;71.51;100144.98;106081;1274;96124;-72
2022/01/18 11:57:23;;;;;;;28.40;9.70;;;;;;;0.10;71.55;100148.79;106042;1273;95283;-72
2022/01/18 11:59:56;;;;;;;24.20;8.50;;;;;;;0.11;71.70;100150.70;106102;1274;108190;-72
2022/01/18 12:02:30;;;;;;;24.30;8.50;;;;;;;0.13;71.63;100156.77;106010;1273;97895;-73
2022/01/18 12:05:03;;;;;;;25.70;9.10;;;;;;;0.16;71.55;100157.80;106052;1274;96004;-73
2022/01/18 12:07:34;;;;;;;25.50;9.40;;;;;;;0.17;71.60;100156.73;106180;1273;111166;-74
2022/01/18 12:10:06;;;;;;;22.70;8.70;;;;;;;0.20;71.61;100158.61;106131;1274;97981;-74
2022/01/18 12:12:40;;;;;;;26.90;8.80;;;;;;;0.23;71.59;100163.45;105980;1274;106594;-73
2022/01/18 12:15:36;;;;;;;25.20;9.10;;;;;;;0.24;71.55;100163.80;105997;1274;96955;-73
2022/01/18 12:18:17;;;;;;;25.50;9.20;;;;;;;0.27;71.62;100169.86;105939;1274;97973;-73
2022/01/18 12:20:48;;;;;;;25.70;9.40;;;;;;;0.29;71.47;100172.98;106119;1274;111435;-74
2022/01/18 12:23:17;;;;;;;22.30;8.80;;;;;;;0.30;71.51;100185.69;106199;1274;97959;-73
2022/01/18 12:25:56;;;;;;;28.30;9.40;;;;;;;0.31;71.51;100186.91;107797;1274;107580;-74
2022/01/18 12:32:04;;;;;;;27.10;9.00;;;;;;;0.35;71.50;100192.61;106075;1273;97865;-72
2022/01/18 12:34:48;;;;;;;24.40;8.80;;;;;;;0.36;71.45;100196.45;105983;1274;111410;-73
2022/01/18 12:37:24;;;;;;;23.40;8.60;;;;;;;0.37;71.40;100203.59;106100;1274;97852;-72
2022/01/18 12:40:15;;;;;;;24.10;8.90;;;;;;;0.39;71.56;100211.25;106042;1274;107863;-72
2022/01/18 12:45:30;;;;;;;22.10;9.00;;;;;;;0.43;71.48;100209.42;106126;1274;98557;-75
2022/01/18 12:48:05;;;;;;;25.50;8.80;;;;;;;0.45;71.58;100219.54;106175;1274;112023;-73
2022/01/18 12:50:47;;;;;;;22.10;8.10;;;;;;;0.48;71.47;100214.27;106146;1274;95288;-72
2022/01/18 12:53:18;;;;;;;24.30;8.00;;;;;;;0.49;71.68;100214.61;106145;1274;107732;-76
2022/01/18 12:55:54;;;;;;;28.70;10.80;;;;;;;0.50;71.55;100216.34;106159;1274;99053;-74